sensor_id;sensor_type;location;lat;lon;timestamp;pressure;altitude;pressure_sealevel;temperature;humidity
35649;BME280;21768;48.562;13.414;2023-06-14T00:00:13;96918.13;;;15.53;49.81
35649;BME280;21768;48.562;13.414;2023-06-14T00:02:39;96920.59;;;15.52;50.23
35649;BME280;21768;48.562;13.414;2023-06-14T00:05:08;96914.53;;;15.48;50.48
35649;BME280;21768;48.562;13.414;2023-06-14T00:07:38;96922.97;;;15.47;50.95
35649;BME280;21768;48.562;13.414;2023-06-14T00:10:04;96915.28;;;15.46;51.32
35649;BME280;21768;48.562;13.414;2023-06-14T00:12:29;96918.63;;;15.45;51.51
35649;BME280;21768;48.562;13.414;2023-06-14T00:14:55;96914.16;;;15.39;52.04
35649;BME280;21768;48.562;13.414;2023-06-14T00:17:20;96909.75;;;15.35;52.34
35649;BME280;21768;48.562;13.414;2023-06-14T00:19:46;96911.44;;;15.35;52.41
35649;BME280;21768;48.562;13.414;2023-06-14T00:22:11;96914.69;;;15.30;52.87
35649;BME280;21768;48.562;13.414;2023-06-14T00:24:37;96914.47;;;15.24;52.75
35649;BME280;21768;48.562;13.414;2023-06-14T00:27:02;96908.38;;;15.21;53.24
35649;BME280;21768;48.562;13.414;2023-06-14T00:29:28;96911.59;;;15.17;53.23
35649;BME280;21768;48.562;13.414;2023-06-14T00:31:53;96906.28;;;15.11;53.42
35649;BME280;21768;48.562;13.414;2023-06-14T00:34:18;96898.56;;;15.08;53.66
35649;BME280;21768;48.562;13.414;2023-06-14T00:36:44;96896.88;;;15.08;53.99
35649;BME280;21768;48.562;13.414;2023-06-14T00:39:09;96898.44;;;15.05;54.18
35649;BME280;21768;48.562;13.414;2023-06-14T00:41:35;96901.34;;;14.93;54.32
35649;BME280;21768;48.562;13.414;2023-06-14T00:44:00;96902.84;;;14.88;54.45
35649;BME280;21768;48.562;13.414;2023-06-14T00:46:25;96905.44;;;14.89;54.58
35649;BME280;21768;48.562;13.414;2023-06-14T00:48:51;96900.34;;;14.89;55.11
35649;BME280;21768;48.562;13.414;2023-06-14T00:51:17;96896.88;;;14.87;55.32
35649;BME280;21768;48.562;13.414;2023-06-14T00:53:42;96896.66;;;14.81;55.27
35649;BME280;21768;48.562;13.414;2023-06-14T00:56:12;96904.84;;;14.74;55.60
35649;BME280;21768;48.562;13.414;2023-06-14T00:58:39;96905.56;;;14.72;55.67
35649;BME280;21768;48.562;13.414;2023-06-14T01:01:04;96905.38;;;14.67;55.68
35649;BME280;21768;48.562;13.414;2023-06-14T01:03:29;96906.13;;;14.64;55.88
35649;BME280;21768;48.562;13.414;2023-06-14T01:06:17;96901.63;;;14.57;55.79
35649;BME280;21768;48.562;13.414;2023-06-14T01:11:26;96904.44;;;14.44;56.53
35649;BME280;21768;48.562;13.414;2023-06-14T01:13:54;96911.97;;;14.43;56.58
35649;BME280;21768;48.562;13.414;2023-06-14T01:16:21;96911.03;;;14.41;56.57
35649;BME280;21768;48.562;13.414;2023-06-14T01:18:46;96917.75;;;14.40;56.86
35649;BME280;21768;48.562;13.414;2023-06-14T01:21:21;96911.91;;;14.41;56.71
35649;BME280;21768;48.562;13.414;2023-06-14T01:23:47;96913.97;;;14.30;56.83
35649;BME280;21768;48.562;13.414;2023-06-14T01:26:24;96909.72;;;14.29;57.33
35649;BME280;21768;48.562;13.414;2023-06-14T01:28:52;96910.66;;;14.32;57.26
35649;BME280;21768;48.562;13.414;2023-06-14T01:31:23;96910.50;;;14.28;57.37
35649;BME280;21768;48.562;13.414;2023-06-14T01:33:50;96912.19;;;14.28;57.68
35649;BME280;21768;48.562;13.414;2023-06-14T01:36:18;96918.00;;;14.25;57.72
35649;BME280;21768;48.562;13.414;2023-06-14T01:38:45;96915.19;;;14.19;57.49
35649;BME280;21768;48.562;13.414;2023-06-14T01:41:11;96912.31;;;14.12;57.88
35649;BME280;21768;48.562;13.414;2023-06-14T01:43:39;96912.94;;;14.06;58.69
35649;BME280;21768;48.562;13.414;2023-06-14T01:46:06;96899.38;;;14.06;58.69
35649;BME280;21768;48.562;13.414;2023-06-14T01:48:32;96911.25;;;14.07;58.88
35649;BME280;21768;48.562;13.414;2023-06-14T01:50:58;96917.06;;;14.04;58.91
35649;BME280;21768;48.562;13.414;2023-06-14T01:53:23;96915.41;;;14.05;58.83
35649;BME280;21768;48.562;13.414;2023-06-14T01:55:48;96914.47;;;14.03;58.60
35649;BME280;21768;48.562;13.414;2023-06-14T01:58:14;96910.84;;;13.98;58.72
35649;BME280;21768;48.562;13.414;2023-06-14T02:00:41;96917.53;;;13.95;58.89
35649;BME280;21768;48.562;13.414;2023-06-14T02:03:08;96912.19;;;13.89;59.29
35649;BME280;21768;48.562;13.414;2023-06-14T02:05:33;96912.88;;;13.85;59.48
35649;BME280;21768;48.562;13.414;2023-06-14T02:07:59;96901.66;;;13.80;59.17
35649;BME280;21768;48.562;13.414;2023-06-14T02:10:25;96910.78;;;13.77;59.12
35649;BME280;21768;48.562;13.414;2023-06-14T02:12:50;96916.59;;;13.74;59.23
35649;BME280;21768;48.562;13.414;2023-06-14T02:15:16;96912.59;;;13.79;58.98
35649;BME280;21768;48.562;13.414;2023-06-14T02:17:47;96913.53;;;13.81;58.94
35649;BME280;21768;48.562;13.414;2023-06-14T02:20:14;96904.97;;;13.79;58.80
35649;BME280;21768;48.562;13.414;2023-06-14T02:22:40;96913.38;;;13.78;58.93
35649;BME280;21768;48.562;13.414;2023-06-14T02:25:06;96909.78;;;13.73;58.77
35649;BME280;21768;48.562;13.414;2023-06-14T02:27:32;96912.81;;;13.66;58.53
35649;BME280;21768;48.562;13.414;2023-06-14T02:29:58;96911.63;;;13.58;59.22
35649;BME280;21768;48.562;13.414;2023-06-14T02:32:24;96910.69;;;13.56;59.22
35649;BME280;21768;48.562;13.414;2023-06-14T02:34:49;96916.78;;;13.59;59.47
35649;BME280;21768;48.562;13.414;2023-06-14T02:37:18;96920.22;;;13.61;59.40
35649;BME280;21768;48.562;13.414;2023-06-14T02:39:43;96912.69;;;13.63;59.22
35649;BME280;21768;48.562;13.414;2023-06-14T02:42:08;96910.69;;;13.56;59.34
35649;BME280;21768;48.562;13.414;2023-06-14T02:44:34;96902.28;;;13.57;59.31
35649;BME280;21768;48.562;13.414;2023-06-14T02:47:01;96907.06;;;13.51;59.56
35649;BME280;21768;48.562;13.414;2023-06-14T02:49:26;96907.06;;;13.51;59.85
35649;BME280;21768;48.562;13.414;2023-06-14T02:51:52;96916.34;;;13.50;59.51
35649;BME280;21768;48.562;13.414;2023-06-14T02:54:17;96918.22;;;13.54;60.09
35649;BME280;21768;48.562;13.414;2023-06-14T02:56:43;96919.09;;;13.55;59.40
35649;BME280;21768;48.562;13.414;2023-06-14T02:59:09;96919.59;;;13.48;59.35
35649;BME280;21768;48.562;13.414;2023-06-14T03:01:34;96918.66;;;13.46;60.11
35649;BME280;21768;48.562;13.414;2023-06-14T03:04:04;96924.47;;;13.43;60.36
35649;BME280;21768;48.562;13.414;2023-06-14T03:06:30;96916.00;;;13.43;60.35
35649;BME280;21768;48.562;13.414;2023-06-14T03:08:59;96915.03;;;13.41;60.12
35649;BME280;21768;48.562;13.414;2023-06-14T03:11:26;96918.38;;;13.40;60.05
35649;BME280;21768;48.562;13.414;2023-06-14T03:13:52;96921.59;;;13.36;59.58
35649;BME280;21768;48.562;13.414;2023-06-14T03:16:19;96911.47;;;13.36;59.50
35649;BME280;21768;48.562;13.414;2023-06-14T03:18:48;96914.66;;;13.32;59.59
35649;BME280;21768;48.562;13.414;2023-06-14T03:21:13;96912.91;;;13.31;59.05
35649;BME280;21768;48.562;13.414;2023-06-14T03:23:41;96912.75;;;13.27;59.41
35649;BME280;21768;48.562;13.414;2023-06-14T03:26:07;96915.94;;;13.23;59.16
35649;BME280;21768;48.562;13.414;2023-06-14T03:28:33;96910.88;;;13.23;59.28
35649;BME280;21768;48.562;13.414;2023-06-14T03:30:58;96914.34;;;13.25;59.52
35649;BME280;21768;48.562;13.414;2023-06-14T03:33:24;96918.47;;;13.23;59.56
35649;BME280;21768;48.562;13.414;2023-06-14T03:35:50;96918.47;;;13.23;59.58
35649;BME280;21768;48.562;13.414;2023-06-14T03:38:16;96925.72;;;13.34;59.76
35649;BME280;21768;48.562;13.414;2023-06-14T03:40:41;96931.13;;;13.41;59.75
35649;BME280;21768;48.562;13.414;2023-06-14T03:43:07;96930.97;;;13.38;59.56
35649;BME280;21768;48.562;13.414;2023-06-14T03:45:32;96938.50;;;13.37;59.83
35649;BME280;21768;48.562;13.414;2023-06-14T03:47:57;96947.81;;;13.36;60.48
35649;BME280;21768;48.562;13.414;2023-06-14T03:50:23;96950.25;;;13.35;60.36
35649;BME280;21768;48.562;13.414;2023-06-14T03:52:49;96959.00;;;13.41;60.02
35649;BME280;21768;48.562;13.414;2023-06-14T03:55:15;96953.41;;;13.48;60.22
35649;BME280;21768;48.562;13.414;2023-06-14T03:57:41;96958.78;;;13.54;60.11
35649;BME280;21768;48.562;13.414;2023-06-14T04:00:08;96955.44;;;13.55;60.15
35649;BME280;21768;48.562;13.414;2023-06-14T04:02:34;96966.72;;;13.62;60.02
35649;BME280;21768;48.562;13.414;2023-06-14T04:04:59;96965.41;;;13.70;60.15
35649;BME280;21768;48.562;13.414;2023-06-14T04:07:25;96960.09;;;13.83;59.75
35649;BME280;21768;48.562;13.414;2023-06-14T04:09:53;96962.25;;;13.93;59.60
35649;BME280;21768;48.562;13.414;2023-06-14T04:12:19;96965.34;;;14.06;59.49
35649;BME280;21768;48.562;13.414;2023-06-14T04:14:44;96974.41;;;14.20;59.29
35649;BME280;21768;48.562;13.414;2023-06-14T04:17:09;96965.69;;;14.33;59.04
35649;BME280;21768;48.562;13.414;2023-06-14T04:19:35;96972.97;;;14.44;58.49
35649;BME280;21768;48.562;13.414;2023-06-14T04:22:01;96967.34;;;14.51;58.70
35649;BME280;21768;48.562;13.414;2023-06-14T04:24:28;96969.59;;;14.64;58.60
35649;BME280;21768;48.562;13.414;2023-06-14T04:26:58;96970.78;;;14.73;58.39
35649;BME280;21768;48.562;13.414;2023-06-14T04:29:24;96976.50;;;14.88;58.50
35649;BME280;21768;48.562;13.414;2023-06-14T04:31:53;96978.63;;;14.98;58.41
35649;BME280;21768;48.562;13.414;2023-06-14T04:34:20;96971.59;;;15.13;58.11
35649;BME280;21768;48.562;13.414;2023-06-14T04:36:47;96973.09;;;15.29;57.77
35649;BME280;21768;48.562;13.414;2023-06-14T04:39:22;96974.50;;;15.43;57.61
35649;BME280;21768;48.562;13.414;2023-06-14T04:41:48;96974.06;;;15.53;57.11
35649;BME280;21768;48.562;13.414;2023-06-14T04:44:20;96976.22;;;15.65;56.42
35649;BME280;21768;48.562;13.414;2023-06-14T04:46:46;96973.78;;;15.68;56.22
35649;BME280;21768;48.562;13.414;2023-06-14T04:49:15;96976.81;;;15.80;55.64
35649;BME280;21768;48.562;13.414;2023-06-14T04:51:41;96985.75;;;15.93;54.79
35649;BME280;21768;48.562;13.414;2023-06-14T04:54:08;96989.53;;;16.03;54.35
35649;BME280;21768;48.562;13.414;2023-06-14T04:56:35;96986.50;;;16.13;54.55
35649;BME280;21768;48.562;13.414;2023-06-14T04:59:03;96986.78;;;16.20;54.19
35649;BME280;21768;48.562;13.414;2023-06-14T05:01:30;96984.97;;;16.18;53.73
35649;BME280;21768;48.562;13.414;2023-06-14T05:03:57;96979.94;;;16.19;53.77
35649;BME280;21768;48.562;13.414;2023-06-14T05:06:23;96990.47;;;16.28;53.70
35649;BME280;21768;48.562;13.414;2023-06-14T05:08:48;96984.81;;;16.37;53.66
35649;BME280;21768;48.562;13.414;2023-06-14T05:11:17;96993.84;;;16.51;54.07
35649;BME280;21768;48.562;13.414;2023-06-14T05:13:42;96995.94;;;16.63;52.61
35649;BME280;21768;48.562;13.414;2023-06-14T05:16:10;96999.69;;;16.73;52.37
35649;BME280;21768;48.562;13.414;2023-06-14T05:18:36;96992.41;;;16.83;52.44
35649;BME280;21768;48.562;13.414;2023-06-14T05:21:02;96993.50;;;16.90;52.31
35649;BME280;21768;48.562;13.414;2023-06-14T05:23:29;96993.81;;;16.99;52.81
35649;BME280;21768;48.562;13.414;2023-06-14T05:25:55;96999.13;;;17.05;51.02
35649;BME280;21768;48.562;13.414;2023-06-14T05:28:20;97002.66;;;17.10;51.91
35649;BME280;21768;48.562;13.414;2023-06-14T05:30:45;97003.53;;;17.11;51.66
35649;BME280;21768;48.562;13.414;2023-06-14T05:33:11;97007.88;;;17.13;52.15
35649;BME280;21768;48.562;13.414;2023-06-14T05:35:36;97011.34;;;17.15;52.25
35649;BME280;21768;48.562;13.414;2023-06-14T05:38:03;97008.19;;;17.22;51.50
35649;BME280;21768;48.562;13.414;2023-06-14T05:40:28;97021.38;;;17.36;51.69
35649;BME280;21768;48.562;13.414;2023-06-14T05:42:53;97014.88;;;17.46;51.79
35649;BME280;21768;48.562;13.414;2023-06-14T05:45:19;97014.38;;;17.56;51.58
35649;BME280;21768;48.562;13.414;2023-06-14T05:47:44;97013.03;;;17.67;51.29
35649;BME280;21768;48.562;13.414;2023-06-14T05:50:09;97018.34;;;17.73;50.13
35649;BME280;21768;48.562;13.414;2023-06-14T05:52:35;97023.69;;;17.82;50.44
35649;BME280;21768;48.562;13.414;2023-06-14T05:55:02;97020.53;;;17.89;50.42
35649;BME280;21768;48.562;13.414;2023-06-14T05:57:28;97016.72;;;18.04;49.98
35649;BME280;21768;48.562;13.414;2023-06-14T05:59:54;97027.38;;;18.19;50.24
35649;BME280;21768;48.562;13.414;2023-06-14T06:02:19;97029.31;;;18.27;50.31
35649;BME280;21768;48.562;13.414;2023-06-14T06:04:45;97030.44;;;18.37;49.74
35649;BME280;21768;48.562;13.414;2023-06-14T06:07:10;97032.63;;;18.53;49.02
35649;BME280;21768;48.562;13.414;2023-06-14T06:09:35;97027.88;;;18.65;48.87
35649;BME280;21768;48.562;13.414;2023-06-14T06:12:01;97028.22;;;18.78;48.31
35649;BME280;21768;48.562;13.414;2023-06-14T06:14:26;97027.63;;;18.88;48.49
35649;BME280;21768;48.562;13.414;2023-06-14T06:16:52;97025.41;;;19.00;47.92
35649;BME280;21768;48.562;13.414;2023-06-14T06:19:18;97038.41;;;19.09;46.98
35649;BME280;21768;48.562;13.414;2023-06-14T06:21:43;97037.56;;;19.10;47.58
35649;BME280;21768;48.562;13.414;2023-06-14T06:24:08;97034.44;;;19.20;48.08
35649;BME280;21768;48.562;13.414;2023-06-14T06:26:34;97042.34;;;19.29;47.63
35649;BME280;21768;48.562;13.414;2023-06-14T06:28:59;97034.72;;;19.32;47.39
35649;BME280;21768;48.562;13.414;2023-06-14T06:31:25;97042.56;;;19.38;47.62
35649;BME280;21768;48.562;13.414;2023-06-14T06:33:50;97042.09;;;19.52;47.92
35649;BME280;21768;48.562;13.414;2023-06-14T06:36:16;97040.63;;;19.63;47.71
35649;BME280;21768;48.562;13.414;2023-06-14T06:38:41;97045.19;;;19.75;46.53
35649;BME280;21768;48.562;13.414;2023-06-14T06:41:07;97047.00;;;19.80;46.37
35649;BME280;21768;48.562;13.414;2023-06-14T06:43:32;97047.22;;;19.89;47.13
35649;BME280;21768;48.562;13.414;2023-06-14T06:45:58;97042.31;;;19.98;46.49
35649;BME280;21768;48.562;13.414;2023-06-14T06:48:23;97045.94;;;20.08;45.73
35649;BME280;21768;48.562;13.414;2023-06-14T06:50:48;97050.47;;;20.20;45.71
35649;BME280;21768;48.562;13.414;2023-06-14T06:53:14;97051.53;;;20.31;45.82
35649;BME280;21768;48.562;13.414;2023-06-14T06:55:40;97045.84;;;20.41;45.22
35649;BME280;21768;48.562;13.414;2023-06-14T06:58:05;97047.75;;;20.51;44.84
35649;BME280;21768;48.562;13.414;2023-06-14T07:00:31;97052.19;;;20.60;44.40
35649;BME280;21768;48.562;13.414;2023-06-14T07:02:56;97053.91;;;20.61;44.30
35649;BME280;21768;48.562;13.414;2023-06-14T07:05:22;97060.91;;;20.68;43.63
35649;BME280;21768;48.562;13.414;2023-06-14T07:07:48;97056.66;;;20.68;43.17
35649;BME280;21768;48.562;13.414;2023-06-14T07:10:13;97056.66;;;20.68;43.11
35649;BME280;21768;48.562;13.414;2023-06-14T07:12:39;97059.44;;;20.81;42.77
35649;BME280;21768;48.562;13.414;2023-06-14T07:15:06;97057.06;;;20.90;43.34
35649;BME280;21768;48.562;13.414;2023-06-14T07:17:32;97058.97;;;21.00;42.69
35649;BME280;21768;48.562;13.414;2023-06-14T07:19:59;97056.56;;;21.09;42.94
35649;BME280;21768;48.562;13.414;2023-06-14T07:22:26;97058.53;;;21.21;42.28
35649;BME280;21768;48.562;13.414;2023-06-14T07:24:51;97065.59;;;21.34;43.26
35649;BME280;21768;48.562;13.414;2023-06-14T07:27:17;97061.53;;;21.47;42.54
35649;BME280;21768;48.562;13.414;2023-06-14T07:29:42;97060.72;;;21.49;41.71
35649;BME280;21768;48.562;13.414;2023-06-14T07:32:08;97055.69;;;21.55;40.78
35649;BME280;21768;48.562;13.414;2023-06-14T07:34:33;97059.13;;;21.57;42.26
35649;BME280;21768;48.562;13.414;2023-06-14T07:36:58;97064.34;;;21.62;41.33
35649;BME280;21768;48.562;13.414;2023-06-14T07:39:24;97057.69;;;21.73;42.22
35649;BME280;21768;48.562;13.414;2023-06-14T07:41:49;97067.31;;;21.86;41.91
35649;BME280;21768;48.562;13.414;2023-06-14T07:44:15;97055.41;;;21.91;40.82
35649;BME280;21768;48.562;13.414;2023-06-14T07:46:41;97055.59;;;22.00;40.99
35649;BME280;21768;48.562;13.414;2023-06-14T07:49:06;97065.94;;;22.08;40.15
35649;BME280;21768;48.562;13.414;2023-06-14T07:51:32;97066.88;;;22.12;40.13
35649;BME280;21768;48.562;13.414;2023-06-14T07:53:59;97061.78;;;22.15;40.15
35649;BME280;21768;48.562;13.414;2023-06-14T07:56:27;97061.00;;;22.20;39.54
35649;BME280;21768;48.562;13.414;2023-06-14T07:58:52;97057.69;;;22.30;39.28
35649;BME280;21768;48.562;13.414;2023-06-14T08:01:17;97068.13;;;22.41;39.72
35649;BME280;21768;48.562;13.414;2023-06-14T08:03:45;97072.53;;;22.50;39.09
35649;BME280;21768;48.562;13.414;2023-06-14T08:06:10;97068.31;;;22.56;38.80
35649;BME280;21768;48.562;13.414;2023-06-14T08:08:36;97065.00;;;22.63;38.57
35649;BME280;21768;48.562;13.414;2023-06-14T08:11:01;97066.81;;;22.72;39.09
35649;BME280;21768;48.562;13.414;2023-06-14T08:13:26;97067.59;;;22.65;37.94
35649;BME280;21768;48.562;13.414;2023-06-14T08:15:52;97070.94;;;22.61;38.85
35649;BME280;21768;48.562;13.414;2023-06-14T08:18:17;97070.16;;;22.66;37.65
35649;BME280;21768;48.562;13.414;2023-06-14T08:20:42;97076.25;;;22.71;38.74
35649;BME280;21768;48.562;13.414;2023-06-14T08:23:09;97065.22;;;22.80;38.32
35649;BME280;21768;48.562;13.414;2023-06-14T08:25:34;97075.66;;;22.92;37.86
35649;BME280;21768;48.562;13.414;2023-06-14T08:27:59;97074.88;;;22.99;37.38
35649;BME280;21768;48.562;13.414;2023-06-14T08:30:26;97069.75;;;23.04;36.52
35649;BME280;21768;48.562;13.414;2023-06-14T08:32:51;97074.16;;;23.11;37.22
35649;BME280;21768;48.562;13.414;2023-06-14T08:35:17;97066.50;;;23.19;37.22
35649;BME280;21768;48.562;13.414;2023-06-14T08:37:43;97060.59;;;23.29;35.88
35649;BME280;21768;48.562;13.414;2023-06-14T08:40:18;97066.56;;;23.26;36.47
35649;BME280;21768;48.562;13.414;2023-06-14T08:42:48;97070.97;;;23.36;36.61
35649;BME280;21768;48.562;13.414;2023-06-14T08:45:16;97069.44;;;23.54;35.65
35649;BME280;21768;48.562;13.414;2023-06-14T08:47:42;97073.00;;;23.68;35.24
35649;BME280;21768;48.562;13.414;2023-06-14T08:50:08;97072.22;;;23.81;35.08
35649;BME280;21768;48.562;13.414;2023-06-14T08:52:37;97069.75;;;23.90;34.66
35649;BME280;21768;48.562;13.414;2023-06-14T08:55:06;97073.19;;;23.92;34.50
35649;BME280;21768;48.562;13.414;2023-06-14T08:57:36;97071.50;;;23.94;34.70
35649;BME280;21768;48.562;13.414;2023-06-14T09:00:03;97072.41;;;24.07;35.14
35649;BME280;21768;48.562;13.414;2023-06-14T09:02:37;97069.16;;;24.25;33.42
35649;BME280;21768;48.562;13.414;2023-06-14T09:05:02;97069.25;;;24.41;32.23
35649;BME280;21768;48.562;13.414;2023-06-14T09:07:28;97078.16;;;25.17;31.42
35649;BME280;21768;48.562;13.414;2023-06-14T09:10:12;97068.78;;;25.87;30.39
35649;BME280;21768;48.562;13.414;2023-06-14T09:12:38;97065.31;;;26.16;30.47
35649;BME280;21768;48.562;13.414;2023-06-14T09:15:05;97067.91;;;25.82;30.14
35649;BME280;21768;48.562;13.414;2023-06-14T09:17:35;97075.69;;;25.73;30.83
35649;BME280;21768;48.562;13.414;2023-06-14T09:20:05;97073.09;;;25.68;30.81
35649;BME280;21768;48.562;13.414;2023-06-14T09:22:32;97077.38;;;25.80;31.03
35649;BME280;21768;48.562;13.414;2023-06-14T09:24:58;97075.69;;;25.91;32.24
35649;BME280;21768;48.562;13.414;2023-06-14T09:27:28;97079.03;;;26.50;30.48
35649;BME280;21768;48.562;13.414;2023-06-14T09:29:54;97075.34;;;27.19;28.85
35649;BME280;21768;48.562;13.414;2023-06-14T09:32:20;97066.63;;;28.39;27.67
35649;BME280;21768;48.562;13.414;2023-06-14T09:34:46;97079.53;;;29.18;26.26
35649;BME280;21768;48.562;13.414;2023-06-14T09:37:11;97070.09;;;29.12;26.92
35649;BME280;21768;48.562;13.414;2023-06-14T09:39:51;97073.75;;;29.59;26.15
35649;BME280;21768;48.562;13.414;2023-06-14T09:42:18;97068.47;;;30.19;25.24
35649;BME280;21768;48.562;13.414;2023-06-14T09:44:48;97072.94;;;31.00;26.27
35649;BME280;21768;48.562;13.414;2023-06-14T09:47:15;97074.28;;;31.95;24.03
35649;BME280;21768;48.562;13.414;2023-06-14T09:49:40;97068.44;;;32.53;22.97
35649;BME280;21768;48.562;13.414;2023-06-14T09:52:06;97064.13;;;31.45;23.92
35649;BME280;21768;48.562;13.414;2023-06-14T09:54:34;97070.63;;;29.92;24.87
35649;BME280;21768;48.562;13.414;2023-06-14T09:57:02;97072.31;;;28.70;26.29
35649;BME280;21768;48.562;13.414;2023-06-14T09:59:30;97070.22;;;29.64;25.59
35649;BME280;21768;48.562;13.414;2023-06-14T10:02:05;97070.72;;;31.62;23.72
35649;BME280;21768;48.562;13.414;2023-06-14T10:04:35;97072.53;;;33.22;21.78
35649;BME280;21768;48.562;13.414;2023-06-14T10:07:01;97075.13;;;32.63;22.42
35649;BME280;21768;48.562;13.414;2023-06-14T10:09:28;97065.63;;;32.61;21.79
35649;BME280;21768;48.562;13.414;2023-06-14T10:11:55;97061.13;;;33.54;20.92
35649;BME280;21768;48.562;13.414;2023-06-14T10:14:20;97060.84;;;32.76;20.54
35649;BME280;21768;48.562;13.414;2023-06-14T10:17:03;97070.72;;;31.62;22.39
35649;BME280;21768;48.562;13.414;2023-06-14T10:19:37;97068.63;;;30.57;24.66
35649;BME280;21768;48.562;13.414;2023-06-14T10:22:14;97065.69;;;29.75;25.84
35649;BME280;21768;48.562;13.414;2023-06-14T10:24:43;97067.63;;;29.00;26.25
35649;BME280;21768;48.562;13.414;2023-06-14T10:27:09;97061.47;;;28.35;25.33
35649;BME280;21768;48.562;13.414;2023-06-14T10:32:18;97071.91;;;27.14;27.64
35649;BME280;21768;48.562;13.414;2023-06-14T10:34:44;97070.31;;;26.76;27.40
35649;BME280;21768;48.562;13.414;2023-06-14T10:37:13;97063.53;;;26.45;27.77
35649;BME280;21768;48.562;13.414;2023-06-14T10:39:43;97061.00;;;26.16;28.83
35649;BME280;21768;48.562;13.414;2023-06-14T10:42:11;97061.88;;;25.86;28.94
35649;BME280;21768;48.562;13.414;2023-06-14T10:44:45;97061.91;;;25.69;29.37
35649;BME280;21768;48.562;13.414;2023-06-14T10:49:50;97061.84;;;25.42;30.24
35649;BME280;21768;48.562;13.414;2023-06-14T10:52:18;97060.09;;;25.30;31.14
35649;BME280;21768;48.562;13.414;2023-06-14T10:57:31;97063.53;;;25.17;31.88
35649;BME280;21768;48.562;13.414;2023-06-14T11:00:00;97066.09;;;25.08;31.41
35649;BME280;21768;48.562;13.414;2023-06-14T11:05:29;97060.94;;;25.17;31.59
35649;BME280;21768;48.562;13.414;2023-06-14T11:10:39;97051.53;;;25.74;30.86
35649;BME280;21768;48.562;13.414;2023-06-14T11:13:06;97054.94;;;26.43;29.55
35649;BME280;21768;48.562;13.414;2023-06-14T11:15:34;97054.69;;;26.98;30.52
35649;BME280;21768;48.562;13.414;2023-06-14T11:18:01;97054.69;;;27.01;28.90
35649;BME280;21768;48.562;13.414;2023-06-14T11:20:31;97058.13;;;27.03;29.38
35649;BME280;21768;48.562;13.414;2023-06-14T11:22:56;97051.00;;;27.40;27.80
35649;BME280;21768;48.562;13.414;2023-06-14T11:25:22;97054.44;;;27.43;26.91
35649;BME280;21768;48.562;13.414;2023-06-14T11:27:52;97054.34;;;27.59;27.06
35649;BME280;21768;48.562;13.414;2023-06-14T11:30:18;97047.41;;;27.64;26.49
35649;BME280;21768;48.562;13.414;2023-06-14T11:32:47;97037.78;;;27.75;27.22
35649;BME280;21768;48.562;13.414;2023-06-14T11:35:13;97040.13;;;28.02;27.59
35649;BME280;21768;48.562;13.414;2023-06-14T11:37:39;97038.00;;;28.44;27.12
35649;BME280;21768;48.562;13.414;2023-06-14T11:40:07;97039.75;;;28.42;25.96
35649;BME280;21768;48.562;13.414;2023-06-14T11:42:35;97037.44;;;28.15;26.57
35649;BME280;21768;48.562;13.414;2023-06-14T11:45:01;97043.63;;;27.98;27.64
35649;BME280;21768;48.562;13.414;2023-06-14T11:47:34;97034.28;;;27.81;27.62
35649;BME280;21768;48.562;13.414;2023-06-14T11:50:01;97038.81;;;27.50;28.01
35649;BME280;21768;48.562;13.414;2023-06-14T11:52:27;97040.72;;;27.26;28.19
35649;BME280;21768;48.562;13.414;2023-06-14T11:54:53;97050.34;;;27.10;28.00
35649;BME280;21768;48.562;13.414;2023-06-14T11:57:19;97044.34;;;27.01;28.71
35649;BME280;21768;48.562;13.414;2023-06-14T11:59:45;97047.81;;;26.89;28.20
35649;BME280;21768;48.562;13.414;2023-06-14T12:02:14;97045.19;;;27.01;27.80
35649;BME280;21768;48.562;13.414;2023-06-14T12:04:43;97045.13;;;27.14;28.17
35649;BME280;21768;48.562;13.414;2023-06-14T12:07:10;97039.97;;;27.10;28.54
35649;BME280;21768;48.562;13.414;2023-06-14T12:09:41;97052.06;;;27.08;28.98
35649;BME280;21768;48.562;13.414;2023-06-14T12:12:09;97047.81;;;26.94;28.77
35649;BME280;21768;48.562;13.414;2023-06-14T12:14:36;97046.09;;;26.90;28.33
35649;BME280;21768;48.562;13.414;2023-06-14T12:17:07;97046.91;;;27.01;29.40
35649;BME280;21768;48.562;13.414;2023-06-14T12:19:33;97044.34;;;26.98;27.93
35649;BME280;21768;48.562;13.414;2023-06-14T12:22:03;97042.69;;;26.75;28.48
35649;BME280;21768;48.562;13.414;2023-06-14T12:24:30;97043.63;;;26.65;28.43
35649;BME280;21768;48.562;13.414;2023-06-14T12:26:57;97044.41;;;26.84;28.57
35649;BME280;21768;48.562;13.414;2023-06-14T12:29:25;97045.19;;;27.01;27.77
35649;BME280;21768;48.562;13.414;2023-06-14T12:31:50;97043.44;;;27.08;27.50
35649;BME280;21768;48.562;13.414;2023-06-14T12:34:16;97032.97;;;27.23;27.02
35649;BME280;21768;48.562;13.414;2023-06-14T12:36:41;97035.38;;;27.48;28.09
35649;BME280;21768;48.562;13.414;2023-06-14T12:39:10;97039.63;;;27.62;27.13
35649;BME280;21768;48.562;13.414;2023-06-14T12:41:35;97037.88;;;27.69;26.62
35649;BME280;21768;48.562;13.414;2023-06-14T12:44:02;97039.47;;;27.81;26.82
35649;BME280;21768;48.562;13.414;2023-06-14T12:46:30;97035.16;;;27.78;26.12
35649;BME280;21768;48.562;13.414;2023-06-14T12:48:56;97039.59;;;27.68;26.79
35649;BME280;21768;48.562;13.414;2023-06-14T12:51:22;97033.63;;;27.59;26.67
35649;BME280;21768;48.562;13.414;2023-06-14T12:53:48;97038.75;;;27.66;27.42
35649;BME280;21768;48.562;13.414;2023-06-14T12:56:14;97033.47;;;27.74;26.74
35649;BME280;21768;48.562;13.414;2023-06-14T12:58:41;97032.53;;;27.86;27.08
35649;BME280;21768;48.562;13.414;2023-06-14T13:01:06;97034.97;;;28.01;27.29
35649;BME280;21768;48.562;13.414;2023-06-14T13:03:32;97031.44;;;28.06;26.09